sensor_id;sensor_type;location;lat;lon;timestamp;P1;P2;P0
76784;PMS7003;66893;44.316;0.092;2023-06-14T00:01:43;5.50;5.50;4.00
76784;PMS7003;66893;44.316;0.092;2023-06-14T00:04:10;3.50;2.75;2.25
76784;PMS7003;66893;44.316;0.092;2023-06-14T00:06:36;4.75;4.00;3.00
76784;PMS7003;66893;44.316;0.092;2023-06-14T00:09:03;7.25;5.25;4.25
76784;PMS7003;66893;44.316;0.092;2023-06-14T00:11:29;5.50;5.50;4.50
76784;PMS7003;66893;44.316;0.092;2023-06-14T00:13:55;5.00;5.00;4.00
76784;PMS7003;66893;44.316;0.092;2023-06-14T00:16:21;5.50;4.00;3.00
76784;PMS7003;66893;44.316;0.092;2023-06-14T00:18:47;6.25;5.25;3.50
76784;PMS7003;66893;44.316;0.092;2023-06-14T00:21:13;5.00;4.00;3.00
76784;PMS7003;66893;44.316;0.092;2023-06-14T00:23:39;6.00;6.00;5.00
76784;PMS7003;66893;44.316;0.092;2023-06-14T00:26:05;5.25;5.25;4.50
76784;PMS7003;66893;44.316;0.092;2023-06-14T00:28:30;4.75;4.75;4.00
76784;PMS7003;66893;44.316;0.092;2023-06-14T00:30:56;6.00;5.00;4.00
76784;PMS7003;66893;44.316;0.092;2023-06-14T00:33:21;6.00;4.75;4.75
76784;PMS7003;66893;44.316;0.092;2023-06-14T00:35:46;5.00;5.00;3.25
76784;PMS7003;66893;44.316;0.092;2023-06-14T00:38:12;6.00;6.00;5.00
76784;PMS7003;66893;44.316;0.092;2023-06-14T00:40:37;7.00;5.50;5.00
76784;PMS7003;66893;44.316;0.092;2023-06-14T00:43:03;8.00;6.00;4.00
76784;PMS7003;66893;44.316;0.092;2023-06-14T00:45:28;7.00;7.00;5.00
76784;PMS7003;66893;44.316;0.092;2023-06-14T00:47:56;7.50;7.00;5.00
76784;PMS7003;66893;44.316;0.092;2023-06-14T00:50:22;7.00;5.25;4.50
76784;PMS7003;66893;44.316;0.092;2023-06-14T00:52:48;6.25;5.25;5.00
76784;PMS7003;66893;44.316;0.092;2023-06-14T00:55:14;7.00;7.00;5.75
76784;PMS7003;66893;44.316;0.092;2023-06-14T00:57:40;9.25;8.00;5.75
76784;PMS7003;66893;44.316;0.092;2023-06-14T01:00:06;6.00;6.00;4.50
76784;PMS7003;66893;44.316;0.092;2023-06-14T01:02:37;9.25;8.25;7.00
76784;PMS7003;66893;44.316;0.092;2023-06-14T01:05:03;7.25;6.25;5.50
76784;PMS7003;66893;44.316;0.092;2023-06-14T01:07:53;8.50;6.50;5.50
76784;PMS7003;66893;44.316;0.092;2023-06-14T01:10:41;11.00;8.25;6.50
76784;PMS7003;66893;44.316;0.092;2023-06-14T01:15:49;7.00;7.00;6.00
76784;PMS7003;66893;44.316;0.092;2023-06-14T01:18:16;8.25;7.50;6.00
76784;PMS7003;66893;44.316;0.092;2023-06-14T01:20:43;8.00;8.00;6.00
76784;PMS7003;66893;44.316;0.092;2023-06-14T01:23:10;8.00;8.00;5.75
76784;PMS7003;66893;44.316;0.092;2023-06-14T01:25:39;10.75;8.25;6.00
76784;PMS7003;66893;44.316;0.092;2023-06-14T01:28:06;7.00;7.00;6.00
76784;PMS7003;66893;44.316;0.092;2023-06-14T01:30:35;11.25;9.50;7.50
76784;PMS7003;66893;44.316;0.092;2023-06-14T01:33:10;10.00;10.00;7.25
76784;PMS7003;66893;44.316;0.092;2023-06-14T01:35:38;9.25;8.00;7.00
76784;PMS7003;66893;44.316;0.092;2023-06-14T01:38:04;15.75;10.75;6.75
76784;PMS7003;66893;44.316;0.092;2023-06-14T01:40:32;10.50;10.00;7.75
76784;PMS7003;66893;44.316;0.092;2023-06-14T01:42:59;12.25;10.00;7.00
76784;PMS7003;66893;44.316;0.092;2023-06-14T01:45:27;7.00;6.75;5.25
76784;PMS7003;66893;44.316;0.092;2023-06-14T01:47:54;8.50;8.50;6.50
76784;PMS7003;66893;44.316;0.092;2023-06-14T01:50:20;9.50;8.75;6.50
76784;PMS7003;66893;44.316;0.092;2023-06-14T01:52:46;10.00;10.00;6.75
76784;PMS7003;66893;44.316;0.092;2023-06-14T01:55:11;12.25;10.50;7.50
76784;PMS7003;66893;44.316;0.092;2023-06-14T01:57:37;10.75;9.25;7.00
76784;PMS7003;66893;44.316;0.092;2023-06-14T02:00:03;12.75;10.75;8.00
76784;PMS7003;66893;44.316;0.092;2023-06-14T02:02:31;10.75;10.00;7.50
76784;PMS7003;66893;44.316;0.092;2023-06-14T02:04:56;12.50;10.00;7.00
76784;PMS7003;66893;44.316;0.092;2023-06-14T02:07:22;10.25;10.25;8.00
76784;PMS7003;66893;44.316;0.092;2023-06-14T02:09:49;10.25;9.25;7.00
76784;PMS7003;66893;44.316;0.092;2023-06-14T02:12:14;10.50;9.50;7.50
76784;PMS7003;66893;44.316;0.092;2023-06-14T02:14:40;8.00;8.00;6.25
76784;PMS7003;66893;44.316;0.092;2023-06-14T02:17:05;11.25;10.25;7.75
76784;PMS7003;66893;44.316;0.092;2023-06-14T02:19:31;11.75;11.00;8.75
76784;PMS7003;66893;44.316;0.092;2023-06-14T02:21:57;8.50;8.50;6.50
76784;PMS7003;66893;44.316;0.092;2023-06-14T02:24:22;10.25;8.75;6.50
76784;PMS7003;66893;44.316;0.092;2023-06-14T02:26:48;9.50;9.50;7.00
76784;PMS7003;66893;44.316;0.092;2023-06-14T02:29:14;12.25;10.00;7.25
76784;PMS7003;66893;44.316;0.092;2023-06-14T02:31:41;12.25;10.50;7.50
76784;PMS7003;66893;44.316;0.092;2023-06-14T02:34:06;12.25;10.00;7.25
76784;PMS7003;66893;44.316;0.092;2023-06-14T02:36:34;11.50;11.50;9.00
76784;PMS7003;66893;44.316;0.092;2023-06-14T02:39:00;13.25;12.00;8.00
76784;PMS7003;66893;44.316;0.092;2023-06-14T02:41:26;13.25;10.00;8.00
76784;PMS7003;66893;44.316;0.092;2023-06-14T02:43:52;10.25;10.00;8.00
76784;PMS7003;66893;44.316;0.092;2023-06-14T02:46:18;11.25;10.25;8.25
76784;PMS7003;66893;44.316;0.092;2023-06-14T02:48:43;15.50;11.50;9.25
76784;PMS7003;66893;44.316;0.092;2023-06-14T02:51:09;10.75;10.75;8.00
76784;PMS7003;66893;44.316;0.092;2023-06-14T02:53:35;12.75;11.50;8.25
76784;PMS7003;66893;44.316;0.092;2023-06-14T02:56:01;11.00;10.50;8.25
76784;PMS7003;66893;44.316;0.092;2023-06-14T02:58:28;10.75;10.00;8.00
76784;PMS7003;66893;44.316;0.092;2023-06-14T03:00:54;12.25;10.00;7.00
76784;PMS7003;66893;44.316;0.092;2023-06-14T03:03:20;11.25;10.50;7.75
76784;PMS7003;66893;44.316;0.092;2023-06-14T03:05:47;11.75;10.00;7.50
76784;PMS7003;66893;44.316;0.092;2023-06-14T03:08:15;11.50;9.75;7.25
76784;PMS7003;66893;44.316;0.092;2023-06-14T03:10:51;13.00;10.25;7.75
76784;PMS7003;66893;44.316;0.092;2023-06-14T03:13:17;13.75;12.75;10.00
76784;PMS7003;66893;44.316;0.092;2023-06-14T03:15:45;12.25;10.50;9.50
76784;PMS7003;66893;44.316;0.092;2023-06-14T03:18:11;14.25;11.75;9.00
76784;PMS7003;66893;44.316;0.092;2023-06-14T03:20:40;12.25;12.25;8.00
76784;PMS7003;66893;44.316;0.092;2023-06-14T03:23:06;14.00;12.25;9.00
76784;PMS7003;66893;44.316;0.092;2023-06-14T03:25:32;14.50;12.75;9.00
76784;PMS7003;66893;44.316;0.092;2023-06-14T03:28:03;9.25;9.25;7.50
76784;PMS7003;66893;44.316;0.092;2023-06-14T03:30:31;12.25;11.00;8.00
76784;PMS7003;66893;44.316;0.092;2023-06-14T03:32:57;14.00;13.75;8.25
76784;PMS7003;66893;44.316;0.092;2023-06-14T03:35:26;13.75;11.50;8.00
76784;PMS7003;66893;44.316;0.092;2023-06-14T03:37:51;11.50;11.50;8.75
76784;PMS7003;66893;44.316;0.092;2023-06-14T03:40:17;11.00;10.50;8.75
76784;PMS7003;66893;44.316;0.092;2023-06-14T03:42:44;13.25;11.75;8.75
76784;PMS7003;66893;44.316;0.092;2023-06-14T03:45:09;12.50;11.50;8.25
76784;PMS7003;66893;44.316;0.092;2023-06-14T03:47:35;12.25;10.50;7.00
76784;PMS7003;66893;44.316;0.092;2023-06-14T03:50:01;13.75;12.75;8.50
76784;PMS7003;66893;44.316;0.092;2023-06-14T03:52:27;13.75;13.00;9.00
76784;PMS7003;66893;44.316;0.092;2023-06-14T03:54:53;12.50;11.75;8.75
76784;PMS7003;66893;44.316;0.092;2023-06-14T03:57:19;11.25;9.75;7.50
76784;PMS7003;66893;44.316;0.092;2023-06-14T03:59:45;11.75;11.75;7.50
76784;PMS7003;66893;44.316;0.092;2023-06-14T04:02:12;13.00;12.25;7.25
76784;PMS7003;66893;44.316;0.092;2023-06-14T04:04:40;13.00;12.00;9.50
76784;PMS7003;66893;44.316;0.092;2023-06-14T04:07:09;13.75;10.75;8.75
76784;PMS7003;66893;44.316;0.092;2023-06-14T04:09:38;12.75;12.75;9.50
76784;PMS7003;66893;44.316;0.092;2023-06-14T04:12:04;13.25;11.50;8.00
76784;PMS7003;66893;44.316;0.092;2023-06-14T04:14:30;11.25;11.25;8.25
76784;PMS7003;66893;44.316;0.092;2023-06-14T04:16:57;9.00;8.75;6.50
76784;PMS7003;66893;44.316;0.092;2023-06-14T04:19:23;14.00;12.50;9.75
76784;PMS7003;66893;44.316;0.092;2023-06-14T04:21:49;12.50;11.50;9.25
76784;PMS7003;66893;44.316;0.092;2023-06-14T04:24:15;12.25;11.50;8.00
76784;PMS7003;66893;44.316;0.092;2023-06-14T04:26:43;15.00;13.00;9.00
76784;PMS7003;66893;44.316;0.092;2023-06-14T04:29:10;13.50;11.00;8.25
76784;PMS7003;66893;44.316;0.092;2023-06-14T04:31:39;12.00;11.50;8.50
76784;PMS7003;66893;44.316;0.092;2023-06-14T04:34:05;13.50;12.00;9.25
76784;PMS7003;66893;44.316;0.092;2023-06-14T04:36:32;11.50;10.25;7.00
76784;PMS7003;66893;44.316;0.092;2023-06-14T04:39:00;13.00;13.00;8.75
76784;PMS7003;66893;44.316;0.092;2023-06-14T04:41:28;13.75;10.00;7.00
76784;PMS7003;66893;44.316;0.092;2023-06-14T04:43:59;13.00;11.75;8.25
76784;PMS7003;66893;44.316;0.092;2023-06-14T04:46:29;11.50;11.25;8.25
76784;PMS7003;66893;44.316;0.092;2023-06-14T04:48:55;14.25;12.75;8.75
76784;PMS7003;66893;44.316;0.092;2023-06-14T04:51:21;10.50;10.50;8.25
76784;PMS7003;66893;44.316;0.092;2023-06-14T04:53:54;14.50;11.75;9.00
76784;PMS7003;66893;44.316;0.092;2023-06-14T04:56:23;11.75;10.25;7.50
76784;PMS7003;66893;44.316;0.092;2023-06-14T04:58:50;14.25;11.25;8.50
76784;PMS7003;66893;44.316;0.092;2023-06-14T05:01:15;9.75;9.75;7.50
76784;PMS7003;66893;44.316;0.092;2023-06-14T05:03:41;13.75;11.75;8.00
76784;PMS7003;66893;44.316;0.092;2023-06-14T05:06:10;11.00;11.00;7.25
76784;PMS7003;66893;44.316;0.092;2023-06-14T05:08:36;13.75;11.50;8.00
76784;PMS7003;66893;44.316;0.092;2023-06-14T05:11:02;16.00;11.50;7.75
76784;PMS7003;66893;44.316;0.092;2023-06-14T05:13:27;11.50;8.50;6.25
76784;PMS7003;66893;44.316;0.092;2023-06-14T05:15:53;15.75;12.75;9.75
76784;PMS7003;66893;44.316;0.092;2023-06-14T05:18:18;13.75;12.00;9.75
76784;PMS7003;66893;44.316;0.092;2023-06-14T05:20:44;13.00;11.50;7.25
76784;PMS7003;66893;44.316;0.092;2023-06-14T05:23:11;10.25;10.25;8.00
76784;PMS7003;66893;44.316;0.092;2023-06-14T05:25:41;11.25;11.25;9.25
76784;PMS7003;66893;44.316;0.092;2023-06-14T05:28:08;13.25;13.25;9.25
76784;PMS7003;66893;44.316;0.092;2023-06-14T05:30:33;12.50;9.75;8.00
76784;PMS7003;66893;44.316;0.092;2023-06-14T05:32:59;13.50;13.00;8.75
76784;PMS7003;66893;44.316;0.092;2023-06-14T05:35:24;14.50;13.50;10.00
76784;PMS7003;66893;44.316;0.092;2023-06-14T05:37:52;14.00;12.50;9.50
76784;PMS7003;66893;44.316;0.092;2023-06-14T05:40:18;11.50;11.50;8.25
76784;PMS7003;66893;44.316;0.092;2023-06-14T05:42:44;14.25;11.25;8.75
76784;PMS7003;66893;44.316;0.092;2023-06-14T05:45:09;18.25;13.25;10.00
76784;PMS7003;66893;44.316;0.092;2023-06-14T05:47:35;15.75;13.00;9.00
76784;PMS7003;66893;44.316;0.092;2023-06-14T05:50:01;13.50;10.25;9.00
76784;PMS7003;66893;44.316;0.092;2023-06-14T05:52:26;14.75;10.00;9.00
76784;PMS7003;66893;44.316;0.092;2023-06-14T05:54:53;10.25;9.25;8.00
76784;PMS7003;66893;44.316;0.092;2023-06-14T05:57:18;12.25;10.75;8.00
76784;PMS7003;66893;44.316;0.092;2023-06-14T05:59:44;11.00;11.00;9.25
76784;PMS7003;66893;44.316;0.092;2023-06-14T06:02:09;10.50;10.50;8.00
76784;PMS7003;66893;44.316;0.092;2023-06-14T06:04:35;14.75;11.00;8.00
76784;PMS7003;66893;44.316;0.092;2023-06-14T06:07:01;11.75;10.75;7.75
76784;PMS7003;66893;44.316;0.092;2023-06-14T06:09:26;12.25;10.50;8.25
76784;PMS7003;66893;44.316;0.092;2023-06-14T06:11:52;14.00;10.75;8.50
76784;PMS7003;66893;44.316;0.092;2023-06-14T06:14:17;14.75;12.00;9.00
76784;PMS7003;66893;44.316;0.092;2023-06-14T06:16:42;9.50;9.25;7.50
76784;PMS7003;66893;44.316;0.092;2023-06-14T06:19:08;12.75;11.00;9.00
76784;PMS7003;66893;44.316;0.092;2023-06-14T06:21:33;15.00;13.75;9.00
76784;PMS7003;66893;44.316;0.092;2023-06-14T06:23:59;13.25;13.25;8.75
76784;PMS7003;66893;44.316;0.092;2023-06-14T06:26:28;18.75;16.00;10.75
76784;PMS7003;66893;44.316;0.092;2023-06-14T06:28:53;16.25;13.50;10.50
76784;PMS7003;66893;44.316;0.092;2023-06-14T06:31:20;17.25;12.25;9.25
76784;PMS7003;66893;44.316;0.092;2023-06-14T06:33:47;19.00;16.75;10.50
76784;PMS7003;66893;44.316;0.092;2023-06-14T06:36:13;16.25;14.75;11.50
76784;PMS7003;66893;44.316;0.092;2023-06-14T06:38:38;17.75;13.75;10.50
76784;PMS7003;66893;44.316;0.092;2023-06-14T06:41:03;14.75;14.50;12.25
76784;PMS7003;66893;44.316;0.092;2023-06-14T06:43:31;20.25;14.00;10.50
76784;PMS7003;66893;44.316;0.092;2023-06-14T06:45:57;20.00;17.50;12.00
76784;PMS7003;66893;44.316;0.092;2023-06-14T06:48:22;19.75;14.50;10.25
76784;PMS7003;66893;44.316;0.092;2023-06-14T06:50:48;17.50;17.00;12.50
76784;PMS7003;66893;44.316;0.092;2023-06-14T06:53:13;18.50;15.50;11.50
76784;PMS7003;66893;44.316;0.092;2023-06-14T06:55:39;20.50;17.50;12.75
76784;PMS7003;66893;44.316;0.092;2023-06-14T06:58:04;19.50;18.50;14.00
76784;PMS7003;66893;44.316;0.092;2023-06-14T07:00:30;20.50;19.50;13.50
76784;PMS7003;66893;44.316;0.092;2023-06-14T07:02:56;24.25;18.50;12.50
76784;PMS7003;66893;44.316;0.092;2023-06-14T07:05:22;18.75;14.50;11.25
76784;PMS7003;66893;44.316;0.092;2023-06-14T07:07:47;18.25;16.50;12.50
76784;PMS7003;66893;44.316;0.092;2023-06-14T07:10:13;20.75;19.25;13.50
76784;PMS7003;66893;44.316;0.092;2023-06-14T07:12:39;22.50;17.50;9.25
76784;PMS7003;66893;44.316;0.092;2023-06-14T07:15:08;19.00;16.00;9.75
76784;PMS7003;66893;44.316;0.092;2023-06-14T07:17:34;18.75;17.75;13.75
76784;PMS7003;66893;44.316;0.092;2023-06-14T07:20:00;25.75;21.25;13.00
76784;PMS7003;66893;44.316;0.092;2023-06-14T07:22:40;20.75;19.50;12.00
76784;PMS7003;66893;44.316;0.092;2023-06-14T07:25:08;22.25;19.50;12.50
76784;PMS7003;66893;44.316;0.092;2023-06-14T07:27:34;18.25;16.00;9.75
76784;PMS7003;66893;44.316;0.092;2023-06-14T07:30:00;19.00;18.00;13.00
76784;PMS7003;66893;44.316;0.092;2023-06-14T07:32:25;21.50;19.75;13.50
76784;PMS7003;66893;44.316;0.092;2023-06-14T07:34:50;18.50;16.50;12.25
76784;PMS7003;66893;44.316;0.092;2023-06-14T07:37:16;23.25;18.25;12.00
76784;PMS7003;66893;44.316;0.092;2023-06-14T07:39:41;17.00;16.75;12.25
76784;PMS7003;66893;44.316;0.092;2023-06-14T07:42:07;24.25;23.25;13.50
76784;PMS7003;66893;44.316;0.092;2023-06-14T07:44:32;22.00;17.00;12.25
76784;PMS7003;66893;44.316;0.092;2023-06-14T07:46:58;22.00;19.75;13.50
76784;PMS7003;66893;44.316;0.092;2023-06-14T07:49:24;21.75;17.75;13.50
76784;PMS7003;66893;44.316;0.092;2023-06-14T07:51:50;23.75;20.75;15.00
76784;PMS7003;66893;44.316;0.092;2023-06-14T07:54:16;17.00;13.75;10.00
76784;PMS7003;66893;44.316;0.092;2023-06-14T07:56:42;18.25;16.75;13.00
76784;PMS7003;66893;44.316;0.092;2023-06-14T07:59:08;17.75;16.50;12.00
76784;PMS7003;66893;44.316;0.092;2023-06-14T08:01:33;19.50;17.25;12.50
76784;PMS7003;66893;44.316;0.092;2023-06-14T08:03:59;19.75;17.50;13.25
76784;PMS7003;66893;44.316;0.092;2023-06-14T08:06:26;25.50;22.25;13.50
76784;PMS7003;66893;44.316;0.092;2023-06-14T08:08:51;20.25;18.50;13.00
76784;PMS7003;66893;44.316;0.092;2023-06-14T08:11:17;24.00;20.00;12.50
76784;PMS7003;66893;44.316;0.092;2023-06-14T08:13:42;17.25;15.50;11.75
76784;PMS7003;66893;44.316;0.092;2023-06-14T08:16:08;22.00;19.75;14.25
76784;PMS7003;66893;44.316;0.092;2023-06-14T08:18:34;22.50;17.00;12.25
76784;PMS7003;66893;44.316;0.092;2023-06-14T08:20:59;21.75;18.50;13.75
76784;PMS7003;66893;44.316;0.092;2023-06-14T08:23:25;19.25;16.50;12.00
76784;PMS7003;66893;44.316;0.092;2023-06-14T08:25:50;22.50;19.00;13.00
76784;PMS7003;66893;44.316;0.092;2023-06-14T08:28:16;24.00;19.50;15.50
76784;PMS7003;66893;44.316;0.092;2023-06-14T08:30:42;22.25;20.25;14.00
76784;PMS7003;66893;44.316;0.092;2023-06-14T08:33:08;23.25;20.25;14.50
76784;PMS7003;66893;44.316;0.092;2023-06-14T08:35:33;25.25;19.75;13.75
76784;PMS7003;66893;44.316;0.092;2023-06-14T08:38:02;25.00;21.00;15.50
76784;PMS7003;66893;44.316;0.092;2023-06-14T08:40:28;21.50;18.75;13.00
76784;PMS7003;66893;44.316;0.092;2023-06-14T08:42:55;20.00;19.00;12.75
76784;PMS7003;66893;44.316;0.092;2023-06-14T08:45:21;22.00;20.50;13.75
76784;PMS7003;66893;44.316;0.092;2023-06-14T08:47:47;19.75;18.25;12.75
76784;PMS7003;66893;44.316;0.092;2023-06-14T08:50:20;21.25;19.50;12.50
76784;PMS7003;66893;44.316;0.092;2023-06-14T08:52:47;25.50;21.50;13.75
76784;PMS7003;66893;44.316;0.092;2023-06-14T08:55:16;22.25;19.00;12.75
76784;PMS7003;66893;44.316;0.092;2023-06-14T08:57:43;24.25;22.25;15.75
76784;PMS7003;66893;44.316;0.092;2023-06-14T09:00:09;19.75;18.50;13.00
76784;PMS7003;66893;44.316;0.092;2023-06-14T09:02:39;20.75;18.00;13.50
76784;PMS7003;66893;44.316;0.092;2023-06-14T09:05:08;22.50;19.25;14.00
76784;PMS7003;66893;44.316;0.092;2023-06-14T09:07:38;22.25;20.25;15.25
76784;PMS7003;66893;44.316;0.092;2023-06-14T09:10:13;21.50;20.25;14.25
76784;PMS7003;66893;44.316;0.092;2023-06-14T09:12:40;26.25;22.50;16.25
76784;PMS7003;66893;44.316;0.092;2023-06-14T09:15:06;27.00;19.00;14.25
76784;PMS7003;66893;44.316;0.092;2023-06-14T09:17:33;19.00;17.00;12.75
76784;PMS7003;66893;44.316;0.092;2023-06-14T09:20:03;23.00;18.50;14.00
76784;PMS7003;66893;44.316;0.092;2023-06-14T09:22:33;24.50;20.50;15.00
76784;PMS7003;66893;44.316;0.092;2023-06-14T09:24:59;21.75;21.75;15.25
76784;PMS7003;66893;44.316;0.092;2023-06-14T09:27:25;20.00;19.75;15.25
76784;PMS7003;66893;44.316;0.092;2023-06-14T09:29:52;23.25;22.25;17.25
76784;PMS7003;66893;44.316;0.092;2023-06-14T09:32:18;22.50;20.75;15.00
76784;PMS7003;66893;44.316;0.092;2023-06-14T09:34:45;31.25;27.25;16.25
76784;PMS7003;66893;44.316;0.092;2023-06-14T09:37:11;20.75;19.00;14.00
76784;PMS7003;66893;44.316;0.092;2023-06-14T09:39:52;18.75;18.50;14.75
76784;PMS7003;66893;44.316;0.092;2023-06-14T09:42:18;23.75;21.25;14.50
76784;PMS7003;66893;44.316;0.092;2023-06-14T09:44:46;21.50;19.50;12.50
76784;PMS7003;66893;44.316;0.092;2023-06-14T09:47:13;23.25;19.00;13.75
76784;PMS7003;66893;44.316;0.092;2023-06-14T09:49:42;22.00;20.50;14.75
76784;PMS7003;66893;44.316;0.092;2023-06-14T09:52:15;28.25;22.25;14.50
76784;PMS7003;66893;44.316;0.092;2023-06-14T09:54:43;22.00;20.25;14.00
76784;PMS7003;66893;44.316;0.092;2023-06-14T09:57:13;21.75;18.00;13.50
76784;PMS7003;66893;44.316;0.092;2023-06-14T09:59:42;24.00;20.50;12.75
76784;PMS7003;66893;44.316;0.092;2023-06-14T10:02:26;21.00;21.00;14.25
76784;PMS7003;66893;44.316;0.092;2023-06-14T10:07:32;18.50;18.50;13.50
76784;PMS7003;66893;44.316;0.092;2023-06-14T10:10:05;19.50;17.00;14.75
76784;PMS7003;66893;44.316;0.092;2023-06-14T10:12:32;19.50;15.50;13.50
76784;PMS7003;66893;44.316;0.092;2023-06-14T10:14:58;19.00;18.25;12.75
76784;PMS7003;66893;44.316;0.092;2023-06-14T10:17:27;24.50;22.25;15.50
76784;PMS7003;66893;44.316;0.092;2023-06-14T10:20:06;23.50;19.75;14.50
76784;PMS7003;66893;44.316;0.092;2023-06-14T10:23:08;22.75;19.00;13.50
76784;PMS7003;66893;44.316;0.092;2023-06-14T10:25:38;17.00;17.00;11.50
76784;PMS7003;66893;44.316;0.092;2023-06-14T10:33:29;22.50;20.25;14.00
76784;PMS7003;66893;44.316;0.092;2023-06-14T10:39:00;28.00;23.25;14.00
76784;PMS7003;66893;44.316;0.092;2023-06-14T10:41:39;19.25;18.25;14.00
76784;PMS7003;66893;44.316;0.092;2023-06-14T10:46:49;22.00;20.00;13.25
76784;PMS7003;66893;44.316;0.092;2023-06-14T10:49:18;23.75;19.75;14.00
76784;PMS7003;66893;44.316;0.092;2023-06-14T10:51:44;20.50;18.25;13.50
76784;PMS7003;66893;44.316;0.092;2023-06-14T10:54:17;19.75;15.50;10.50
76784;PMS7003;66893;44.316;0.092;2023-06-14T10:56:52;18.50;18.00;13.00
76784;PMS7003;66893;44.316;0.092;2023-06-14T10:59:22;20.25;19.75;13.00
76784;PMS7003;66893;44.316;0.092;2023-06-14T11:01:58;20.75;20.75;15.50
76784;PMS7003;66893;44.316;0.092;2023-06-14T11:04:47;18.25;17.75;12.75
76784;PMS7003;66893;44.316;0.092;2023-06-14T11:13:08;20.00;19.00;13.25
76784;PMS7003;66893;44.316;0.092;2023-06-14T11:15:35;22.50;18.25;12.75
76784;PMS7003;66893;44.316;0.092;2023-06-14T11:18:05;22.50;17.75;14.25
76784;PMS7003;66893;44.316;0.092;2023-06-14T11:20:32;18.25;18.25;12.00
76784;PMS7003;66893;44.316;0.092;2023-06-14T11:23:00;19.50;17.00;12.00
76784;PMS7003;66893;44.316;0.092;2023-06-14T11:25:26;15.25;15.25;11.25
76784;PMS7003;66893;44.316;0.092;2023-06-14T11:27:53;17.25;16.25;11.75
76784;PMS7003;66893;44.316;0.092;2023-06-14T11:30:20;14.75;13.00;9.00
76784;PMS7003;66893;44.316;0.092;2023-06-14T11:32:46;19.25;19.25;12.00
76784;PMS7003;66893;44.316;0.092;2023-06-14T11:35:15;16.75;14.75;10.25
76784;PMS7003;66893;44.316;0.092;2023-06-14T11:37:42;17.50;16.25;12.50
76784;PMS7003;66893;44.316;0.092;2023-06-14T11:40:09;18.00;17.00;12.25
76784;PMS7003;66893;44.316;0.092;2023-06-14T11:42:37;14.00;13.25;10.75
76784;PMS7003;66893;44.316;0.092;2023-06-14T11:45:04;15.75;13.75;10.75
76784;PMS7003;66893;44.316;0.092;2023-06-14T11:47:33;18.25;15.00;12.50
76784;PMS7003;66893;44.316;0.092;2023-06-14T11:49:59;17.50;14.00;10.25
76784;PMS7003;66893;44.316;0.092;2023-06-14T11:52:25;14.25;14.25;10.50
76784;PMS7003;66893;44.316;0.092;2023-06-14T11:54:51;15.50;15.50;11.50
76784;PMS7003;66893;44.316;0.092;2023-06-14T11:57:23;16.00;14.25;11.50
76784;PMS7003;66893;44.316;0.092;2023-06-14T11:59:50;16.50;15.25;11.25
76784;PMS7003;66893;44.316;0.092;2023-06-14T12:02:16;14.00;14.00;10.25
76784;PMS7003;66893;44.316;0.092;2023-06-14T12:04:48;17.75;15.25;11.50
76784;PMS7003;66893;44.316;0.092;2023-06-14T12:07:15;15.75;14.00;11.00
76784;PMS7003;66893;44.316;0.092;2023-06-14T12:09:42;16.00;13.50;11.00
76784;PMS7003;66893;44.316;0.092;2023-06-14T12:12:30;16.00;13.75;11.50
76784;PMS7003;66893;44.316;0.092;2023-06-14T12:14:56;14.75;12.75;10.25
76784;PMS7003;66893;44.316;0.092;2023-06-14T12:17:21;14.50;14.25;10.00
76784;PMS7003;66893;44.316;0.092;2023-06-14T12:19:48;15.00;14.75;10.00
76784;PMS7003;66893;44.316;0.092;2023-06-14T12:22:15;14.25;13.75;9.25
76784;PMS7003;66893;44.316;0.092;2023-06-14T12:24:44;15.25;15.00;10.50
76784;PMS7003;66893;44.316;0.092;2023-06-14T12:27:10;14.00;14.00;10.75
76784;PMS7003;66893;44.316;0.092;2023-06-14T12:29:40;14.75;13.25;10.25
76784;PMS7003;66893;44.316;0.092;2023-06-14T12:32:09;17.25;15.25;11.00
76784;PMS7003;66893;44.316;0.092;2023-06-14T12:34:35;16.50;15.00;10.25
76784;PMS7003;66893;44.316;0.092;2023-06-14T12:37:01;13.00;12.25;10.00
76784;PMS7003;66893;44.316;0.092;2023-06-14T12:39:29;18.00;16.00;11.00
76784;PMS7003;66893;44.316;0.092;2023-06-14T12:41:56;17.00;12.75;10.00
76784;PMS7003;66893;44.316;0.092;2023-06-14T12:44:23;11.75;10.25;7.00
76784;PMS7003;66893;44.316;0.092;2023-06-14T12:46:51;17.00;13.75;11.00
76784;PMS7003;66893;44.316;0.092;2023-06-14T12:49:18;14.75;13.75;9.50
76784;PMS7003;66893;44.316;0.092;2023-06-14T12:51:47;13.75;11.75;10.75
76784;PMS7003;66893;44.316;0.092;2023-06-14T12:54:13;13.75;13.25;10.25
76784;PMS7003;66893;44.316;0.092;2023-06-14T12:56:39;14.00;13.25;9.75
76784;PMS7003;66893;44.316;0.092;2023-06-14T12:59:06;13.50;10.00;7.00
76784;PMS7003;66893;44.316;0.092;2023-06-14T13:01:32;13.25;10.00;8.50
76784;PMS7003;66893;44.316;0.092;2023-06-14T13:03:59;12.50;11.75;8.75
76784;PMS7003;66893;44.316;0.092;2023-06-14T13:06:24;13.75;12.50;9.25
76784;PMS7003;66893;44.316;0.092;2023-06-14T13:08:51;11.25;11.25;9.75
76784;PMS7003;66893;44.316;0.092;2023-06-14T13:11:19;14.50;11.00;7.75
76784;PMS7003;66893;44.316;0.092;2023-06-14T13:13:51;11.75;10.50;9.25
76784;PMS7003;66893;44.316;0.092;2023-06-14T13:16:16;8.25;8.25;6.25
76784;PMS7003;66893;44.316;0.092;2023-06-14T13:18:42;16.75;15.00;11.00
76784;PMS7003;66893;44.316;0.092;2023-06-14T13:21:07;14.75;11.75;8.00
76784;PMS7003;66893;44.316;0.092;2023-06-14T13:23:32;13.00;12.00;8.00
76784;PMS7003;66893;44.316;0.092;2023-06-14T13:25:58;12.25;11.50;9.50
76784;PMS7003;66893;44.316;0.092;2023-06-14T13:28:23;13.25;11.50;8.50
76784;PMS7003;66893;44.316;0.092;2023-06-14T13:30:49;14.00;11.25;9.25
76784;PMS7003;66893;44.316;0.092;2023-06-14T13:33:14;12.25;12.25;9.50
76784;PMS7003;66893;44.316;0.092;2023-06-14T13:35:48;13.75;12.75;9.00
76784;PMS7003;66893;44.316;0.092;2023-06-14T13:38:14;12.50;10.00;8.00
76784;PMS7003;66893;44.316;0.092;2023-06-14T13:40:40;14.25;10.25;8.25
76784;PMS7003;66893;44.316;0.092;2023-06-14T13:43:08;13.50;11.25;8.00
76784;PMS7003;66893;44.316;0.092;2023-06-14T13:45:35;11.50;11.50;9.25
76784;PMS7003;66893;44.316;0.092;2023-06-14T13:48:00;9.00;9.00;7.75
76784;PMS7003;66893;44.316;0.092;2023-06-14T13:50:26;12.25;12.25;9.00
76784;PMS7003;66893;44.316;0.092;2023-06-14T13:52:51;10.50;10.00;7.25
76784;PMS7003;66893;44.316;0.092;2023-06-14T13:55:16;14.50;11.75;9.00
76784;PMS7003;66893;44.316;0.092;2023-06-14T13:57:45;9.50;9.50;7.00
76784;PMS7003;66893;44.316;0.092;2023-06-14T14:00:10;11.00;9.00;7.00
76784;PMS7003;66893;44.316;0.092;2023-06-14T14:02:37;11.00;11.00;8.00
76784;PMS7003;66893;44.316;0.092;2023-06-14T14:05:05;9.25;9.25;7.25
76784;PMS7003;66893;44.316;0.092;2023-06-14T14:07:31;13.00;12.00;9.50
76784;PMS7003;66893;44.316;0.092;2023-06-14T14:09:57;13.00;11.00;8.00
76784;PMS7003;66893;44.316;0.092;2023-06-14T14:12:32;13.00;11.00;9.00
76784;PMS7003;66893;44.316;0.092;2023-06-14T14:14:57;10.75;10.75;8.25
76784;PMS7003;66893;44.316;0.092;2023-06-14T14:17:23;10.50;10.50;8.25
76784;PMS7003;66893;44.316;0.092;2023-06-14T14:19:52;9.00;9.00;8.00